createdAt,value
2023-03-29T00:02:06.734Z,7.72
2023-03-29T00:04:33.358Z,7.58
2023-03-29T00:07:00.144Z,7.52
2023-03-29T00:09:26.755Z,7.48
2023-03-29T00:11:53.524Z,7.66
2023-03-29T00:14:20.261Z,7.51
2023-03-29T00:16:47.071Z,7.49
2023-03-29T00:19:15.270Z,7.60
2023-03-29T00:21:42.151Z,7.53
2023-03-29T00:24:10.033Z,7.47
2023-03-29T00:26:36.816Z,7.42
2023-03-29T00:29:03.934Z,7.63
2023-03-29T00:31:30.613Z,7.58
2023-03-29T00:33:57.336Z,7.56
2023-03-29T00:36:25.352Z,7.64
2023-03-29T00:38:51.897Z,7.73
2023-03-29T00:41:18.540Z,7.55
2023-03-29T00:43:56.116Z,7.51
2023-03-29T00:46:23.156Z,7.41
2023-03-29T00:48:52.235Z,7.60
2023-03-29T00:51:21.223Z,7.77
2023-03-29T00:53:54.800Z,7.81
2023-03-29T00:56:26.398Z,7.81
2023-03-29T00:58:57.623Z,7.81
2023-03-29T01:01:28.541Z,7.64
2023-03-29T01:04:01.001Z,7.71
2023-03-29T01:06:30.729Z,7.91
2023-03-29T01:09:02.901Z,7.92
2023-03-29T01:11:34.897Z,7.95
2023-03-29T01:14:04.378Z,7.93
2023-03-29T01:16:32.500Z,7.91
2023-03-29T01:18:59.837Z,7.95
2023-03-29T01:21:30.544Z,7.84
2023-03-29T01:24:17.581Z,7.80
2023-03-29T01:26:53.668Z,7.88
2023-03-29T01:29:26.340Z,8.08
2023-03-29T01:31:58.142Z,7.89
2023-03-29T01:34:27.564Z,7.83
2023-03-29T01:37:00.901Z,7.85
2023-03-29T01:39:27.488Z,7.82
2023-03-29T01:42:04.020Z,7.82
2023-03-29T01:44:39.598Z,8.09
2023-03-29T01:47:13.099Z,7.99
2023-03-29T01:49:42.504Z,7.96
2023-03-29T01:52:15.383Z,8.10
2023-03-29T01:54:47.935Z,8.01
2023-03-29T01:57:16.848Z,8.13
2023-03-29T01:59:46.215Z,8.24
2023-03-29T02:02:15.785Z,8.32
2023-03-29T02:04:46.832Z,8.31
2023-03-29T02:07:16.299Z,8.36
2023-03-29T02:09:44.036Z,8.16
2023-03-29T02:12:12.817Z,8.30
2023-03-29T02:14:39.377Z,8.25
2023-03-29T02:17:21.666Z,8.20
2023-03-29T02:19:52.828Z,8.37
2023-03-29T02:22:24.130Z,8.44
2023-03-29T02:24:54.755Z,8.36
2023-03-29T02:27:21.365Z,8.17
2023-03-29T02:29:47.900Z,8.51
2023-03-29T02:32:21.256Z,8.43
2023-03-29T02:34:53.447Z,8.44
2023-03-29T02:37:21.732Z,8.40
2023-03-29T02:39:50.189Z,8.39
2023-03-29T02:42:18.814Z,8.55
2023-03-29T02:44:46.934Z,8.50
2023-03-29T02:47:18.270Z,8.47
2023-03-29T02:49:46.313Z,8.56
2023-03-29T02:52:16.833Z,8.55
2023-03-29T02:54:47.385Z,8.53
2023-03-29T02:57:14.058Z,8.76
2023-03-29T02:59:40.948Z,8.78
2023-03-29T03:02:07.550Z,8.95
2023-03-29T03:04:34.226Z,8.89
2023-03-29T03:07:02.413Z,8.91
2023-03-29T03:09:28.976Z,9.00
2023-03-29T03:11:55.525Z,8.99
2023-03-29T03:14:22.390Z,8.90
2023-03-29T03:16:49.076Z,8.88
2023-03-29T03:19:16.304Z,8.86
2023-03-29T03:21:43.056Z,9.01
2023-03-29T03:24:11.122Z,9.03
2023-03-29T03:26:37.787Z,8.90
2023-03-29T03:29:04.449Z,8.76
2023-03-29T03:31:31.231Z,9.11
2023-03-29T03:33:57.905Z,9.25
2023-03-29T03:36:24.625Z,9.18
2023-03-29T03:38:51.183Z,9.09
2023-03-29T03:41:19.102Z,9.33
2023-03-29T03:43:45.746Z,9.29
2023-03-29T03:46:12.354Z,9.21
2023-03-29T03:48:38.997Z,9.22
2023-03-29T03:51:06.384Z,9.35
2023-03-29T03:53:32.971Z,9.47
2023-03-29T03:55:59.551Z,9.23
2023-03-29T03:58:28.574Z,9.28
2023-03-29T04:00:55.270Z,9.02
2023-03-29T04:03:21.941Z,9.07
2023-03-29T04:05:48.667Z,9.14
2023-03-29T04:08:15.266Z,9.26
2023-03-29T04:10:42.049Z,9.39
2023-03-29T04:13:08.646Z,9.30
2023-03-29T04:15:36.769Z,9.47
2023-03-29T04:18:04.065Z,9.46
2023-03-29T04:20:30.659Z,9.48
2023-03-29T04:22:57.272Z,9.34
2023-03-29T04:25:23.874Z,9.38
2023-03-29T04:27:50.655Z,9.40
2023-03-29T04:30:17.375Z,9.56
2023-03-29T04:32:45.511Z,9.40
2023-03-29T04:35:12.053Z,9.42
2023-03-29T04:37:38.661Z,9.25
2023-03-29T04:40:06.385Z,8.94
2023-03-29T04:42:32.956Z,9.26
2023-03-29T04:44:59.588Z,9.18
2023-03-29T04:47:26.276Z,9.04
2023-03-29T04:49:54.218Z,9.16
2023-03-29T04:52:23.220Z,9.31
2023-03-29T04:54:50.989Z,9.26
2023-03-29T04:57:17.741Z,9.20
2023-03-29T04:59:44.402Z,9.23
2023-03-29T05:02:11.103Z,9.21
2023-03-29T05:04:37.898Z,9.08
2023-03-29T05:07:05.869Z,9.00
2023-03-29T05:09:35.028Z,8.78
2023-03-29T05:12:02.344Z,9.02
2023-03-29T05:14:28.912Z,9.04
2023-03-29T05:16:55.493Z,9.11
2023-03-29T05:19:22.152Z,8.97
2023-03-29T05:21:49.222Z,8.88
2023-03-29T05:24:17.237Z,8.75
2023-03-29T05:26:43.895Z,8.73
2023-03-29T05:29:10.742Z,8.77
2023-03-29T05:31:37.423Z,8.75
2023-03-29T05:34:04.349Z,8.74
2023-03-29T05:36:31.290Z,8.93
2023-03-29T05:38:58.218Z,8.97
2023-03-29T05:41:26.223Z,8.81
2023-03-29T05:43:52.910Z,8.87
2023-03-29T05:46:19.731Z,8.95
2023-03-29T05:48:46.385Z,8.80
2023-03-29T05:51:13.014Z,8.90
2023-03-29T05:53:39.556Z,9.05
2023-03-29T05:56:07.092Z,9.03
2023-03-29T05:58:35.103Z,9.21
2023-03-29T06:01:02.167Z,9.33
2023-03-29T06:03:29.044Z,9.57
2023-03-29T06:05:57.901Z,9.50
2023-03-29T06:08:24.971Z,9.50
2023-03-29T06:10:51.689Z,9.55
2023-03-29T06:13:18.250Z,9.67
2023-03-29T06:15:46.228Z,9.73
2023-03-29T06:18:12.860Z,9.80
2023-03-29T06:20:39.547Z,9.80
2023-03-29T06:23:06.131Z,10.08
2023-03-29T06:25:32.846Z,9.97
2023-03-29T06:27:59.478Z,10.12
2023-03-29T06:30:28.504Z,9.97
2023-03-29T06:32:58.425Z,10.04
2023-03-29T06:35:25.042Z,9.85
2023-03-29T06:37:51.642Z,9.90
2023-03-29T06:40:18.737Z,10.11
2023-03-29T06:42:45.741Z,10.01
2023-03-29T06:45:12.604Z,10.17
2023-03-29T06:47:39.300Z,10.11
2023-03-29T06:50:08.434Z,10.49
2023-03-29T06:52:35.068Z,10.62
2023-03-29T06:55:01.734Z,10.70
2023-03-29T06:57:28.351Z,10.91
2023-03-29T06:59:55.177Z,10.79
2023-03-29T07:02:21.785Z,10.81
2023-03-29T07:04:48.596Z,10.66
2023-03-29T07:07:16.777Z,10.64
2023-03-29T07:09:43.423Z,10.87
2023-03-29T07:12:10.133Z,10.90
2023-03-29T07:14:36.702Z,10.77
2023-03-29T07:17:03.510Z,10.72
2023-03-29T07:19:30.192Z,11.00
2023-03-29T07:21:57.143Z,10.95
2023-03-29T07:24:25.158Z,10.68
2023-03-29T07:27:03.321Z,10.67
2023-03-29T07:29:31.454Z,10.76
2023-03-29T07:31:58.100Z,10.90
2023-03-29T07:34:24.681Z,11.05
2023-03-29T07:36:51.264Z,11.18
2023-03-29T07:39:17.891Z,11.48
2023-03-29T07:41:45.996Z,11.48
2023-03-29T07:44:12.711Z,11.48
2023-03-29T07:46:39.265Z,11.87
2023-03-29T07:49:05.841Z,11.51
2023-03-29T07:51:32.422Z,11.62
2023-03-29T07:53:59.158Z,11.59
2023-03-29T07:56:25.699Z,11.93
2023-03-29T07:58:53.928Z,11.89
2023-03-29T08:01:20.684Z,12.02
2023-03-29T08:03:47.557Z,12.20
2023-03-29T08:06:14.214Z,12.04
2023-03-29T08:08:40.857Z,12.16
2023-03-29T08:11:07.487Z,12.21
2023-03-29T08:13:34.068Z,12.10
2023-03-29T08:16:02.084Z,12.12
2023-03-29T08:18:28.614Z,12.03
2023-03-29T08:20:55.291Z,12.14
2023-03-29T08:23:21.870Z,12.20
2023-03-29T08:25:48.411Z,12.34
2023-03-29T08:28:15.004Z,12.16
2023-03-29T08:30:44.562Z,12.26
2023-03-29T08:33:12.496Z,12.41
2023-03-29T08:35:39.111Z,12.38
2023-03-29T08:38:05.656Z,12.67
2023-03-29T08:40:32.564Z,12.85
2023-03-29T08:43:11.946Z,12.89
2023-03-29T08:45:49.039Z,12.97
2023-03-29T08:48:26.606Z,13.02
2023-03-29T08:50:57.603Z,13.33
2023-03-29T08:53:29.090Z,13.24
2023-03-29T08:55:59.659Z,13.26
2023-03-29T08:58:30.828Z,13.34
2023-03-29T09:00:59.135Z,13.50
2023-03-29T09:03:34.305Z,13.59
2023-03-29T09:06:05.225Z,13.62
2023-03-29T09:08:32.461Z,13.89
2023-03-29T09:11:17.377Z,13.89
2023-03-29T09:13:53.037Z,13.72
2023-03-29T09:16:26.013Z,13.41
2023-03-29T09:19:02.406Z,13.44
2023-03-29T09:21:41.033Z,13.68
2023-03-29T09:24:18.467Z,13.87
2023-03-29T09:26:48.806Z,13.93
2023-03-29T09:29:37.312Z,14.18
2023-03-29T09:32:12.772Z,14.38
2023-03-29T09:34:44.238Z,14.16
2023-03-29T09:37:16.903Z,14.47
2023-03-29T09:39:43.869Z,14.97
2023-03-29T09:42:13.740Z,15.89
2023-03-29T09:44:45.394Z,15.83
2023-03-29T09:47:19.957Z,15.83
2023-03-29T09:49:50.678Z,16.21
2023-03-29T09:52:18.472Z,16.52
2023-03-29T09:54:45.088Z,17.04
2023-03-29T09:57:12.283Z,17.21
2023-03-29T09:59:39.795Z,16.78
2023-03-29T10:02:08.240Z,16.65
2023-03-29T10:04:34.922Z,17.04
2023-03-29T10:07:04.105Z,17.01
2023-03-29T10:09:31.959Z,16.81
2023-03-29T10:12:00.383Z,16.89
2023-03-29T10:14:33.507Z,16.83
2023-03-29T10:17:00.206Z,16.87
2023-03-29T10:19:29.611Z,17.42
2023-03-29T10:21:59.335Z,17.09
2023-03-29T10:24:28.288Z,17.15
2023-03-29T10:26:58.031Z,16.83
2023-03-29T10:29:25.957Z,17.14
2023-03-29T10:31:53.018Z,17.15
2023-03-29T10:34:22.461Z,17.13
2023-03-29T10:36:55.971Z,17.20
2023-03-29T10:39:25.943Z,17.14
2023-03-29T10:41:54.299Z,16.84
2023-03-29T10:44:26.863Z,17.11
2023-03-29T10:46:53.430Z,16.66
2023-03-29T10:49:22.399Z,16.66
2023-03-29T10:51:50.248Z,17.39
2023-03-29T10:54:19.668Z,17.99
2023-03-29T10:56:52.530Z,18.65
2023-03-29T10:59:32.571Z,18.90
2023-03-29T11:02:29.307Z,18.88
2023-03-29T11:05:16.163Z,18.85
2023-03-29T11:07:56.241Z,18.76
2023-03-29T11:10:32.764Z,19.30
2023-03-29T11:13:06.683Z,19.20
2023-03-29T11:15:46.491Z,18.81
2023-03-29T11:18:41.006Z,18.87
2023-03-29T11:21:21.562Z,18.84
2023-03-29T11:23:59.087Z,18.33
2023-03-29T11:26:32.994Z,18.56
2023-03-29T11:29:06.877Z,19.04
2023-03-29T11:31:41.406Z,18.94
2023-03-29T11:34:22.654Z,18.70
2023-03-29T11:36:55.354Z,19.05
2023-03-29T11:39:30.343Z,18.93
2023-03-29T11:42:05.145Z,19.43
2023-03-29T11:44:32.726Z,19.35
2023-03-29T11:47:07.104Z,19.13
2023-03-29T11:52:14.792Z,19.50
2023-03-29T11:54:45.994Z,19.60
2023-03-29T11:57:18.833Z,20.12
2023-03-29T11:59:54.324Z,20.41
2023-03-29T12:02:28.695Z,19.60
2023-03-29T12:04:59.665Z,19.99
2023-03-29T12:07:32.050Z,19.58
2023-03-29T12:10:02.683Z,19.79
2023-03-29T12:12:37.627Z,19.59
2023-03-29T12:15:07.040Z,19.58
2023-03-29T12:17:41.995Z,19.37
2023-03-29T12:20:15.168Z,19.68
2023-03-29T12:22:42.333Z,20.11
2023-03-29T12:25:17.813Z,20.27
2023-03-29T12:27:55.238Z,20.62
2023-03-29T12:30:33.134Z,20.89
2023-03-29T12:33:37.457Z,21.07
2023-03-29T12:36:16.587Z,20.76
2023-03-29T12:38:43.992Z,20.97
2023-03-29T12:41:16.689Z,20.39
2023-03-29T12:43:43.539Z,20.68
2023-03-29T12:46:14.829Z,20.85
2023-03-29T12:48:45.538Z,20.88
2023-03-29T12:51:15.062Z,21.57
2023-03-29T12:53:44.355Z,21.00
2023-03-29T12:56:14.953Z,20.87
2023-03-29T12:58:51.315Z,20.66
2023-03-29T13:01:28.762Z,20.67
2023-03-29T13:04:14.665Z,20.74
2023-03-29T13:06:59.115Z,20.70
2023-03-29T13:09:28.624Z,20.86
2023-03-29T13:11:57.517Z,21.29
2023-03-29T13:14:31.816Z,21.18
2023-03-29T13:17:15.571Z,21.63
2023-03-29T13:19:51.628Z,21.70
2023-03-29T13:22:29.491Z,21.70
2023-03-29T13:25:20.165Z,21.77
2023-03-29T13:28:00.794Z,21.72
2023-03-29T13:30:40.575Z,22.13
2023-03-29T13:33:31.026Z,21.99
2023-03-29T13:36:05.450Z,21.74
2023-03-29T13:38:33.044Z,21.25
2023-03-29T13:41:02.361Z,21.40
2023-03-29T13:43:34.895Z,20.63
2023-03-29T13:46:27.546Z,20.87
2023-03-29T13:49:03.969Z,21.14
2023-03-29T13:51:42.496Z,21.07
2023-03-29T13:54:25.035Z,21.52
2023-03-29T13:57:03.716Z,21.13
2023-03-29T13:59:36.712Z,20.87
2023-03-29T14:02:05.174Z,20.89
2023-03-29T14:04:37.604Z,20.78
2023-03-29T14:07:48.834Z,21.05
2023-03-29T14:10:19.300Z,21.12
2023-03-29T14:12:46.538Z,21.00
2023-03-29T14:15:23.281Z,21.35
2023-03-29T14:17:53.861Z,21.51
2023-03-29T14:20:20.678Z,21.39
2023-03-29T14:22:49.682Z,21.51
2023-03-29T14:25:17.644Z,21.31
2023-03-29T14:27:44.994Z,20.82
2023-03-29T14:30:25.590Z,21.54
2023-03-29T14:32:52.439Z,21.31
2023-03-29T14:35:20.278Z,20.94
2023-03-29T14:37:48.535Z,20.79
2023-03-29T14:40:18.344Z,21.23
2023-03-29T14:42:45.914Z,20.98
2023-03-29T14:45:15.553Z,20.62
2023-03-29T14:47:43.837Z,20.73
2023-03-29T14:50:18.018Z,20.81
2023-03-29T14:52:47.575Z,20.94
2023-03-29T14:55:16.828Z,20.78
2023-03-29T14:57:43.748Z,20.83
2023-03-29T15:00:22.235Z,21.12
2023-03-29T15:02:53.127Z,21.06
2023-03-29T15:05:28.574Z,21.13
2023-03-29T15:07:55.350Z,21.24
2023-03-29T15:10:24.204Z,20.94
2023-03-29T15:12:51.154Z,20.98
2023-03-29T15:15:18.544Z,20.87
2023-03-29T15:17:51.938Z,20.68
2023-03-29T15:20:24.139Z,20.39
2023-03-29T15:22:54.602Z,20.61
2023-03-29T15:25:23.009Z,20.69
2023-03-29T15:27:55.536Z,20.72
2023-03-29T15:30:33.782Z,20.76
2023-03-29T15:33:15.258Z,20.78
2023-03-29T15:35:44.147Z,20.81
2023-03-29T15:38:11.137Z,20.15
2023-03-29T15:40:39.177Z,20.32
2023-03-29T15:43:05.849Z,20.23
2023-03-29T15:45:32.430Z,20.22
2023-03-29T15:47:59.126Z,19.80
2023-03-29T15:50:25.693Z,19.53
2023-03-29T15:52:52.915Z,19.32
2023-03-29T15:55:19.542Z,19.51
2023-03-29T15:57:48.680Z,19.56
2023-03-29T16:00:18.427Z,19.68
2023-03-29T16:02:45.065Z,19.57
2023-03-29T16:05:11.963Z,19.55
2023-03-29T16:07:38.754Z,19.79
2023-03-29T16:10:06.320Z,19.84
2023-03-29T16:12:33.092Z,19.74
2023-03-29T16:15:01.253Z,19.49
2023-03-29T16:17:27.842Z,19.59
2023-03-29T16:19:54.559Z,19.68
2023-03-29T16:22:21.114Z,19.58
2023-03-29T16:24:48.352Z,19.50
2023-03-29T16:27:14.938Z,19.57
2023-03-29T16:29:41.584Z,19.38
2023-03-29T16:32:10.482Z,19.36
2023-03-29T16:34:37.119Z,19.39
2023-03-29T16:37:03.724Z,18.96
2023-03-29T16:39:30.529Z,19.08
2023-03-29T16:41:57.091Z,19.21
2023-03-29T16:44:24.104Z,19.06
2023-03-29T16:46:52.331Z,18.96
2023-03-29T16:49:20.349Z,19.10
2023-03-29T16:51:47.953Z,19.11
2023-03-29T16:54:15.141Z,18.99
2023-03-29T16:56:42.014Z,19.12
2023-03-29T16:59:08.818Z,19.12
2023-03-29T17:01:35.919Z,18.97
2023-03-29T17:04:02.721Z,19.00
2023-03-29T17:06:30.697Z,18.90
2023-03-29T17:08:57.821Z,18.93
2023-03-29T17:11:24.985Z,18.55
2023-03-29T17:13:51.850Z,18.48
2023-03-29T17:16:18.473Z,18.40
2023-03-29T17:18:45.086Z,18.35
2023-03-29T17:21:11.670Z,18.54
2023-03-29T17:23:39.671Z,18.31
2023-03-29T17:26:06.625Z,18.40
2023-03-29T17:28:33.721Z,18.16
2023-03-29T17:31:03.821Z,18.25
2023-03-29T17:33:30.432Z,18.04
2023-03-29T17:35:57.047Z,17.99
2023-03-29T17:38:23.631Z,17.93
2023-03-29T17:40:55.404Z,18.02
2023-03-29T17:43:22.830Z,17.96
2023-03-29T17:45:51.047Z,17.99
2023-03-29T17:48:17.624Z,17.99
2023-03-29T17:50:44.259Z,17.83
2023-03-29T17:53:11.060Z,17.74
2023-03-29T17:55:39.089Z,17.69
2023-03-29T17:58:08.035Z,17.65
2023-03-29T18:00:34.678Z,17.64
2023-03-29T18:03:01.354Z,17.67
2023-03-29T18:05:28.004Z,17.67
2023-03-29T18:07:55.039Z,17.69
2023-03-29T18:10:21.641Z,17.51
2023-03-29T18:12:48.259Z,17.37
2023-03-29T18:15:16.271Z,17.34
2023-03-29T18:17:42.853Z,16.91
2023-03-29T18:20:10.077Z,17.00
2023-03-29T18:22:36.720Z,16.98
2023-03-29T18:25:03.808Z,17.02
2023-03-29T18:27:30.424Z,17.03
2023-03-29T18:29:57.071Z,16.92
2023-03-29T18:32:25.076Z,16.82
2023-03-29T18:34:51.767Z,16.88
2023-03-29T18:37:18.472Z,16.86
2023-03-29T18:39:45.076Z,16.77
2023-03-29T18:42:12.242Z,16.81
2023-03-29T18:44:39.437Z,16.93
2023-03-29T18:47:06.109Z,16.57
2023-03-29T18:49:34.120Z,16.67
2023-03-29T18:52:00.967Z,16.70
2023-03-29T18:54:27.795Z,16.71
2023-03-29T18:56:55.554Z,16.71
2023-03-29T18:59:23.443Z,16.70
2023-03-29T19:01:50.090Z,16.50
2023-03-29T19:04:16.707Z,16.64
2023-03-29T19:06:46.965Z,16.57
2023-03-29T19:09:13.588Z,16.65
2023-03-29T19:11:41.406Z,16.65
2023-03-29T19:14:08.004Z,16.48
2023-03-29T19:16:35.173Z,16.47
2023-03-29T19:19:01.764Z,16.43
2023-03-29T19:21:28.316Z,16.42
2023-03-29T19:23:56.220Z,16.57
2023-03-29T19:26:22.834Z,16.20
2023-03-29T19:28:49.409Z,16.24
2023-03-29T19:31:16.071Z,16.27
2023-03-29T19:33:42.658Z,16.38
2023-03-29T19:36:09.336Z,16.18
2023-03-29T19:38:35.760Z,16.22
2023-03-29T19:41:06.307Z,16.08
2023-03-29T19:43:34.128Z,16.07
2023-03-29T19:46:06.132Z,16.22
2023-03-29T19:48:32.743Z,16.18
2023-03-29T19:51:01.841Z,16.17
2023-03-29T19:53:28.430Z,16.18
2023-03-29T19:55:55.149Z,16.17
2023-03-29T19:58:23.121Z,16.24
2023-03-29T20:00:49.789Z,15.89
2023-03-29T20:03:16.504Z,15.96
2023-03-29T20:05:46.190Z,16.02
2023-03-29T20:08:12.919Z,16.08
2023-03-29T20:10:39.514Z,16.11
2023-03-29T20:13:06.140Z,15.97
2023-03-29T20:15:34.232Z,15.60
2023-03-29T20:18:00.882Z,15.65
2023-03-29T20:20:30.596Z,15.81
2023-03-29T20:22:57.205Z,15.81
2023-03-29T20:25:23.996Z,15.78
2023-03-29T20:27:50.559Z,15.83
2023-03-29T20:30:20.746Z,15.71
2023-03-29T20:32:53.218Z,15.72
2023-03-29T20:35:26.550Z,15.68
2023-03-29T20:40:40.365Z,15.56
2023-03-29T20:43:11.975Z,15.68
2023-03-29T20:46:08.324Z,15.61
2023-03-29T20:51:51.110Z,15.39
2023-03-29T20:54:17.663Z,15.39
2023-03-29T20:56:44.413Z,15.47
2023-03-29T20:59:11.154Z,15.39
2023-03-29T21:01:37.840Z,15.45
2023-03-29T21:04:06.023Z,15.38
2023-03-29T21:06:32.634Z,15.24
2023-03-29T21:08:59.221Z,15.34
2023-03-29T21:11:25.914Z,15.07
2023-03-29T21:13:52.566Z,15.24
2023-03-29T21:16:19.387Z,15.36
2023-03-29T21:18:46.234Z,15.32
2023-03-29T21:21:14.188Z,15.33
2023-03-29T21:23:40.764Z,15.22
2023-03-29T21:26:07.367Z,15.28
2023-03-29T21:28:34.067Z,15.30
2023-03-29T21:31:04.270Z,15.17
2023-03-29T21:33:31.137Z,15.17
2023-03-29T21:35:57.785Z,15.11
2023-03-29T21:38:25.842Z,15.28
2023-03-29T21:40:52.465Z,15.17
2023-03-29T21:43:19.136Z,15.21
2023-03-29T21:45:48.276Z,14.88
2023-03-29T21:48:14.908Z,15.26
2023-03-29T21:50:41.501Z,15.34
2023-03-29T21:53:08.190Z,15.16
2023-03-29T21:55:36.232Z,15.24
2023-03-29T21:58:02.836Z,14.90
2023-03-29T22:00:30.956Z,15.09
2023-03-29T22:02:57.684Z,15.21
2023-03-29T22:05:24.326Z,15.14
2023-03-29T22:07:50.873Z,15.17
2023-03-29T22:10:17.819Z,15.02
2023-03-29T22:12:45.815Z,15.09
2023-03-29T22:15:12.948Z,15.17
2023-03-29T22:17:39.756Z,15.47
2023-03-29T22:20:07.257Z,15.34
2023-03-29T22:22:34.050Z,15.26
2023-03-29T22:25:00.641Z,15.10
2023-03-29T22:27:27.202Z,14.92
2023-03-29T22:29:55.221Z,15.13
2023-03-29T22:32:21.788Z,15.18
2023-03-29T22:34:48.336Z,15.15
2023-03-29T22:37:15.171Z,15.22
2023-03-29T22:39:41.706Z,15.16
2023-03-29T22:42:08.422Z,15.15
2023-03-29T22:44:35.066Z,15.08
2023-03-29T22:47:03.107Z,14.86
2023-03-29T22:49:29.645Z,14.93
2023-03-29T22:51:56.193Z,14.99
2023-03-29T22:54:22.831Z,14.82
2023-03-29T22:56:49.622Z,14.77
2023-03-29T22:59:16.210Z,14.69
2023-03-29T23:01:42.815Z,14.74
2023-03-29T23:04:10.928Z,14.63
2023-03-29T23:06:37.492Z,14.63
2023-03-29T23:09:04.351Z,14.78
2023-03-29T23:11:31.068Z,14.82
2023-03-29T23:13:57.655Z,14.74
2023-03-29T23:16:24.305Z,14.48
2023-03-29T23:18:50.910Z,14.55
2023-03-29T23:21:18.845Z,14.55
2023-03-29T23:23:45.429Z,14.62
2023-03-29T23:26:12.091Z,14.45
2023-03-29T23:28:38.938Z,14.50
2023-03-29T23:31:08.135Z,14.70
2023-03-29T23:33:36.342Z,14.79
2023-03-29T23:36:05.326Z,14.64
2023-03-29T23:38:35.908Z,14.72
2023-03-29T23:41:05.018Z,14.78
2023-03-29T23:43:33.734Z,14.85
2023-03-29T23:46:02.391Z,14.75
2023-03-29T23:48:29.092Z,14.70
2023-03-29T23:50:56.095Z,14.86
2023-03-29T23:53:23.205Z,14.96
2023-03-29T23:55:51.111Z,14.77
2023-03-29T23:58:17.663Z,14.86
